createdAt,value
2022-12-31T00:01:52.817Z,100.00
2022-12-31T00:04:25.654Z,100.00
2022-12-31T00:06:58.509Z,100.00
2022-12-31T00:09:31.352Z,100.00
2022-12-31T00:12:04.473Z,100.00
2022-12-31T00:14:37.511Z,100.00
2022-12-31T00:17:11.769Z,100.00
2022-12-31T00:19:44.593Z,100.00
2022-12-31T00:22:17.553Z,100.00
2022-12-31T00:24:50.424Z,100.00
2022-12-31T00:27:23.284Z,100.00
2022-12-31T00:29:59.508Z,100.00
2022-12-31T00:32:38.393Z,100.00
2022-12-31T00:35:11.242Z,100.00
2022-12-31T00:37:44.189Z,100.00
2022-12-31T00:40:17.194Z,100.00
2022-12-31T00:42:50.003Z,100.00
2022-12-31T00:45:23.214Z,100.00
2022-12-31T00:47:57.399Z,100.00
2022-12-31T00:50:30.203Z,100.00
2022-12-31T00:53:03.103Z,100.00
2022-12-31T00:55:35.911Z,100.00
2022-12-31T00:58:08.830Z,100.00
2022-12-31T01:00:41.698Z,100.00
2022-12-31T01:03:15.909Z,100.00
2022-12-31T01:05:50.233Z,100.00
2022-12-31T01:08:23.014Z,100.00
2022-12-31T01:11:13.588Z,100.00
2022-12-31T01:13:46.735Z,100.00
2022-12-31T01:16:22.590Z,100.00
2022-12-31T01:18:59.117Z,100.00
2022-12-31T01:21:32.242Z,100.00
2022-12-31T01:24:05.633Z,100.00
2022-12-31T01:26:39.075Z,100.00
2022-12-31T01:29:12.455Z,100.00
2022-12-31T01:31:45.320Z,100.00
2022-12-31T01:34:20.096Z,100.00
2022-12-31T01:36:52.934Z,100.00
2022-12-31T01:39:25.877Z,100.00
2022-12-31T01:41:59.397Z,100.00
2022-12-31T01:44:54.089Z,100.00
2022-12-31T01:47:36.610Z,100.00
2022-12-31T01:50:15.686Z,100.00
2022-12-31T01:52:52.654Z,100.00
2022-12-31T01:55:29.169Z,100.00
2022-12-31T01:58:07.757Z,100.00
2022-12-31T02:00:41.145Z,100.00
2022-12-31T02:03:14.716Z,100.00
2022-12-31T02:05:52.715Z,100.00
2022-12-31T02:08:25.503Z,100.00
2022-12-31T02:10:58.413Z,100.00
2022-12-31T02:13:31.409Z,100.00
2022-12-31T02:16:11.427Z,100.00
2022-12-31T02:18:53.288Z,100.00
2022-12-31T02:21:43.572Z,100.00
2022-12-31T02:24:37.758Z,100.00
2022-12-31T02:27:14.986Z,100.00
2022-12-31T02:30:14.622Z,100.00
2022-12-31T02:33:07.895Z,100.00
2022-12-31T02:35:48.174Z,100.00
2022-12-31T02:38:24.432Z,100.00
2022-12-31T02:40:57.744Z,100.00
2022-12-31T02:43:30.612Z,100.00
2022-12-31T02:46:12.901Z,100.00
2022-12-31T02:48:50.190Z,100.00
2022-12-31T02:51:38.833Z,100.00
2022-12-31T02:54:23.201Z,100.00
2022-12-31T02:57:06.885Z,100.00
2022-12-31T03:00:06.319Z,100.00
2022-12-31T03:02:43.926Z,100.00
2022-12-31T03:05:19.780Z,100.00
2022-12-31T03:07:52.594Z,100.00
2022-12-31T03:10:25.500Z,100.00
2022-12-31T03:12:58.616Z,100.00
2022-12-31T03:15:34.241Z,100.00
2022-12-31T03:18:10.411Z,100.00
2022-12-31T03:21:02.233Z,100.00
2022-12-31T03:23:37.654Z,100.00
2022-12-31T03:26:12.250Z,100.00
2022-12-31T03:28:47.562Z,100.00
2022-12-31T03:31:20.722Z,100.00
2022-12-31T03:33:54.893Z,100.00
2022-12-31T03:36:27.679Z,100.00
2022-12-31T03:39:00.583Z,100.00
2022-12-31T03:41:33.361Z,100.00
2022-12-31T03:44:06.523Z,100.00
2022-12-31T03:46:39.349Z,100.00
2022-12-31T03:49:13.509Z,100.00
2022-12-31T03:51:46.272Z,100.00
2022-12-31T03:54:19.027Z,100.00
2022-12-31T03:56:55.357Z,100.00
2022-12-31T03:59:33.312Z,100.00
2022-12-31T04:02:06.406Z,100.00
2022-12-31T04:04:40.707Z,100.00
2022-12-31T04:07:13.447Z,100.00
2022-12-31T04:09:46.983Z,100.00
2022-12-31T04:12:19.776Z,100.00
2022-12-31T04:14:52.618Z,100.00
2022-12-31T04:17:25.887Z,100.00
2022-12-31T04:20:00.080Z,100.00
2022-12-31T04:22:32.939Z,100.00
2022-12-31T04:25:10.999Z,100.00
2022-12-31T04:27:44.457Z,100.00
2022-12-31T04:30:17.429Z,100.00
2022-12-31T04:32:50.260Z,100.00
2022-12-31T04:35:24.427Z,100.00
2022-12-31T04:37:57.216Z,100.00
2022-12-31T04:40:29.985Z,100.00
2022-12-31T04:43:02.771Z,100.00
2022-12-31T04:45:35.639Z,100.00
2022-12-31T04:48:08.479Z,100.00
2022-12-31T04:50:42.618Z,100.00
2022-12-31T04:53:15.427Z,100.00
2022-12-31T04:55:48.277Z,100.00
2022-12-31T04:58:21.458Z,100.00
2022-12-31T05:00:55.454Z,100.00
2022-12-31T05:03:28.925Z,100.00
2022-12-31T05:06:05.068Z,100.00
2022-12-31T05:08:38.084Z,100.00
2022-12-31T05:11:11.461Z,100.00
2022-12-31T05:13:44.535Z,100.00
2022-12-31T05:16:17.391Z,100.00
2022-12-31T05:18:50.212Z,100.00
2022-12-31T05:21:24.379Z,100.00
2022-12-31T05:23:57.197Z,100.00
2022-12-31T05:26:30.202Z,100.00
2022-12-31T05:29:03.028Z,100.00
2022-12-31T05:31:35.907Z,100.00
2022-12-31T05:34:08.712Z,100.00
2022-12-31T05:36:42.893Z,100.00
2022-12-31T05:39:15.892Z,100.00
2022-12-31T05:41:48.780Z,99.63
2022-12-31T05:44:21.620Z,98.66
2022-12-31T05:46:54.369Z,98.07
2022-12-31T05:49:27.142Z,98.18
2022-12-31T05:52:01.334Z,97.49
2022-12-31T05:54:34.306Z,97.19
2022-12-31T05:57:07.726Z,95.58
2022-12-31T05:59:40.567Z,94.30
2022-12-31T06:02:13.549Z,94.68
2022-12-31T06:04:46.476Z,94.06
2022-12-31T06:07:21.819Z,94.14
2022-12-31T06:09:54.637Z,93.68
2022-12-31T06:12:27.742Z,94.05
2022-12-31T06:15:00.601Z,92.10
2022-12-31T06:17:35.754Z,92.78
2022-12-31T06:20:13.109Z,91.14
2022-12-31T06:22:47.650Z,91.70
2022-12-31T06:25:20.465Z,91.77
2022-12-31T06:27:53.689Z,90.10
2022-12-31T06:30:26.923Z,91.75
2022-12-31T06:32:59.719Z,90.76
2022-12-31T06:35:32.558Z,90.78
2022-12-31T06:38:06.777Z,90.49
2022-12-31T06:40:39.611Z,90.92
2022-12-31T06:43:12.414Z,90.44
2022-12-31T06:45:46.637Z,91.36
2022-12-31T06:48:19.653Z,89.85
2022-12-31T06:50:52.483Z,89.88
2022-12-31T06:53:26.971Z,90.51
2022-12-31T06:56:05.875Z,89.00
2022-12-31T06:58:39.146Z,89.43
2022-12-31T07:01:29.106Z,89.03
2022-12-31T07:04:11.667Z,88.32
2022-12-31T07:06:49.651Z,87.20
2022-12-31T07:09:33.286Z,87.01
2022-12-31T07:12:15.081Z,87.55
2022-12-31T07:14:53.933Z,87.89
2022-12-31T07:17:34.122Z,86.61
2022-12-31T07:20:12.017Z,87.55
2022-12-31T07:22:45.612Z,87.51
2022-12-31T07:25:23.284Z,87.13
2022-12-31T07:28:11.353Z,86.10
2022-12-31T07:30:52.706Z,85.96
2022-12-31T07:33:35.473Z,85.01
2022-12-31T07:36:18.288Z,82.71
2022-12-31T07:38:56.723Z,84.56
2022-12-31T07:41:48.129Z,84.83
2022-12-31T07:44:43.275Z,84.69
2022-12-31T07:47:22.536Z,84.19
2022-12-31T07:49:56.162Z,84.79
2022-12-31T07:52:29.746Z,84.70
2022-12-31T07:55:03.651Z,84.99
2022-12-31T07:57:47.299Z,84.27
2022-12-31T08:00:20.796Z,85.07
2022-12-31T08:03:15.607Z,83.04
2022-12-31T08:05:59.459Z,84.77
2022-12-31T08:08:37.524Z,84.07
2022-12-31T08:11:19.660Z,84.26
2022-12-31T08:13:56.981Z,84.39
2022-12-31T08:16:30.760Z,83.91
2022-12-31T08:19:04.105Z,83.06
2022-12-31T08:21:49.216Z,83.52
2022-12-31T08:24:31.592Z,82.78
2022-12-31T08:27:10.584Z,83.36
2022-12-31T08:29:55.310Z,84.00
2022-12-31T08:32:36.218Z,82.93
2022-12-31T08:35:22.993Z,83.71
2022-12-31T08:38:03.646Z,84.32
2022-12-31T08:40:48.601Z,83.72
2022-12-31T08:43:38.598Z,83.80
2022-12-31T08:46:20.039Z,84.15
2022-12-31T08:48:53.282Z,84.12
2022-12-31T08:51:27.840Z,84.81
2022-12-31T08:54:01.250Z,82.07
2022-12-31T08:56:38.599Z,82.93
2022-12-31T08:59:25.457Z,82.96
2022-12-31T09:02:30.725Z,82.20
2022-12-31T09:05:16.916Z,81.48
2022-12-31T09:08:04.318Z,81.00
2022-12-31T09:10:46.246Z,80.30
2022-12-31T09:13:30.585Z,80.71
2022-12-31T09:16:12.533Z,80.51
2022-12-31T09:18:45.820Z,79.76
2022-12-31T09:21:20.372Z,79.24
2022-12-31T09:23:53.665Z,78.89
2022-12-31T09:26:41.978Z,78.08
2022-12-31T09:29:28.977Z,78.91
2022-12-31T09:32:10.582Z,79.14
2022-12-31T09:34:53.966Z,77.69
2022-12-31T09:37:39.515Z,77.61
2022-12-31T09:40:31.984Z,77.30
2022-12-31T09:43:37.254Z,79.54
2022-12-31T09:46:49.159Z,78.94
2022-12-31T09:49:50.177Z,79.76
2022-12-31T09:52:31.822Z,78.78
2022-12-31T09:55:25.052Z,78.60
2022-12-31T09:58:08.213Z,80.63
2022-12-31T10:00:45.299Z,81.82
2022-12-31T10:03:37.549Z,82.19
2022-12-31T10:06:22.939Z,81.74
2022-12-31T10:09:11.639Z,81.35
2022-12-31T10:12:24.733Z,80.21
2022-12-31T10:15:09.950Z,79.83
2022-12-31T10:17:56.209Z,80.98
2022-12-31T10:20:48.912Z,82.77
2022-12-31T10:23:46.867Z,81.25
2022-12-31T10:26:44.606Z,80.93
2022-12-31T10:29:26.449Z,79.22
2022-12-31T10:32:15.408Z,79.94
2022-12-31T10:34:56.438Z,80.39
2022-12-31T10:37:35.959Z,80.06
2022-12-31T10:40:26.367Z,79.58
2022-12-31T10:43:34.985Z,79.39
2022-12-31T10:46:36.144Z,79.05
2022-12-31T10:49:38.158Z,78.13
2022-12-31T10:53:02.015Z,77.43
2022-12-31T10:55:52.301Z,77.54
2022-12-31T10:58:56.219Z,78.00
2022-12-31T11:01:43.101Z,77.58
2022-12-31T11:04:49.506Z,78.09
2022-12-31T11:07:46.916Z,78.35
2022-12-31T11:10:59.580Z,77.47
2022-12-31T11:14:07.626Z,77.91
2022-12-31T11:16:59.747Z,77.32
2022-12-31T11:19:42.412Z,76.25
2022-12-31T11:22:43.632Z,75.90
2022-12-31T11:25:29.983Z,76.11
2022-12-31T11:28:13.746Z,75.65
2022-12-31T11:31:02.889Z,75.26
2022-12-31T11:33:52.125Z,75.07
2022-12-31T11:36:34.071Z,75.62
2022-12-31T11:39:31.126Z,76.33
2022-12-31T11:42:11.965Z,74.15
2022-12-31T11:44:50.498Z,74.50
2022-12-31T11:51:06.530Z,74.16
2022-12-31T11:53:50.900Z,74.71
2022-12-31T11:56:29.193Z,73.83
2022-12-31T11:59:07.732Z,74.30
2022-12-31T12:01:55.092Z,74.65
2022-12-31T12:04:28.464Z,74.75
2022-12-31T12:07:02.829Z,74.05
2022-12-31T12:09:36.541Z,73.99
2022-12-31T12:12:09.474Z,73.60
2022-12-31T12:14:44.071Z,74.91
2022-12-31T12:17:22.794Z,73.76
2022-12-31T12:19:56.641Z,74.07
2022-12-31T12:22:31.812Z,73.57
2022-12-31T12:25:08.453Z,74.41
2022-12-31T12:27:41.284Z,73.83
2022-12-31T12:30:20.952Z,73.48
2022-12-31T12:32:55.883Z,73.64
2022-12-31T12:35:31.733Z,74.58
2022-12-31T12:38:08.181Z,74.73
2022-12-31T12:40:41.660Z,75.40
2022-12-31T12:43:24.100Z,74.90
2022-12-31T12:46:00.847Z,74.85
2022-12-31T12:48:40.799Z,74.66
2022-12-31T12:51:28.317Z,74.94
2022-12-31T12:54:09.370Z,74.46
2022-12-31T12:56:52.986Z,75.28
2022-12-31T12:59:45.953Z,74.70
2022-12-31T13:02:52.631Z,77.67
2022-12-31T13:05:37.342Z,80.43
2022-12-31T13:08:25.575Z,79.90
2022-12-31T13:11:17.821Z,80.81
2022-12-31T13:14:00.060Z,78.61
2022-12-31T13:16:41.420Z,80.07
2022-12-31T13:19:20.597Z,79.25
2022-12-31T13:22:02.548Z,79.04
2022-12-31T13:24:52.845Z,77.82
2022-12-31T13:27:31.508Z,79.33
2022-12-31T13:30:15.095Z,77.99
2022-12-31T13:32:52.570Z,78.11
2022-12-31T13:35:29.780Z,79.21
2022-12-31T13:38:06.268Z,79.29
2022-12-31T13:40:45.779Z,78.65
2022-12-31T13:43:26.822Z,78.74
2022-12-31T13:46:09.330Z,77.89
2022-12-31T13:48:50.548Z,76.83
2022-12-31T13:51:30.901Z,76.72
2022-12-31T13:54:11.615Z,77.33
2022-12-31T13:56:46.464Z,76.41
2022-12-31T13:59:24.544Z,77.48
2022-12-31T14:02:05.617Z,77.21
2022-12-31T14:04:44.254Z,76.63
2022-12-31T14:07:21.590Z,77.16
2022-12-31T14:09:55.896Z,77.62
2022-12-31T14:12:36.892Z,76.32
2022-12-31T14:15:19.545Z,75.55
2022-12-31T14:18:04.145Z,75.40
2022-12-31T14:20:46.061Z,77.02
2022-12-31T14:23:32.093Z,77.34
2022-12-31T14:26:10.741Z,78.70
2022-12-31T14:28:48.339Z,78.96
2022-12-31T14:31:34.933Z,78.14
2022-12-31T14:34:14.223Z,79.44
2022-12-31T14:36:58.907Z,78.37
2022-12-31T14:39:46.409Z,77.80
2022-12-31T14:42:30.205Z,77.54
2022-12-31T14:45:18.730Z,75.92
2022-12-31T14:47:59.182Z,76.10
2022-12-31T14:50:34.523Z,74.71
2022-12-31T14:53:09.734Z,74.26
2022-12-31T14:55:42.530Z,74.74
2022-12-31T14:58:28.911Z,71.89
2022-12-31T15:01:04.482Z,72.47
2022-12-31T15:03:45.697Z,72.25
2022-12-31T15:06:55.541Z,72.46
2022-12-31T15:10:00.473Z,72.96
2022-12-31T15:12:52.458Z,72.27
2022-12-31T15:15:35.941Z,72.16
2022-12-31T15:18:27.330Z,73.71
2022-12-31T15:21:17.795Z,72.18
2022-12-31T15:23:50.709Z,72.83
2022-12-31T15:26:25.751Z,72.77
2022-12-31T15:29:02.533Z,72.61
2022-12-31T15:31:37.300Z,72.62
2022-12-31T15:34:24.722Z,74.51
2022-12-31T15:37:00.768Z,75.15
2022-12-31T15:39:42.542Z,75.86
2022-12-31T15:42:47.165Z,76.14
2022-12-31T15:45:28.782Z,77.03
2022-12-31T15:48:08.009Z,76.45
2022-12-31T15:50:42.799Z,77.82
2022-12-31T15:53:26.044Z,78.33
2022-12-31T15:56:01.010Z,78.37
2022-12-31T15:58:37.561Z,79.14
2022-12-31T16:01:15.257Z,78.18
2022-12-31T16:03:52.516Z,78.42
2022-12-31T16:06:28.408Z,78.24
2022-12-31T16:11:55.810Z,78.63
2022-12-31T16:14:35.851Z,77.99
2022-12-31T16:17:31.186Z,77.90
2022-12-31T16:20:22.527Z,78.67
2022-12-31T16:22:58.457Z,77.83
2022-12-31T16:25:34.286Z,78.60
2022-12-31T16:28:07.172Z,77.36
2022-12-31T16:30:41.122Z,78.46
2022-12-31T16:33:15.954Z,77.93
2022-12-31T16:35:55.200Z,77.60
2022-12-31T16:38:33.643Z,76.56
2022-12-31T16:41:18.434Z,75.60
2022-12-31T16:43:51.670Z,76.81
2022-12-31T16:46:29.760Z,75.66
2022-12-31T16:49:08.705Z,76.51
2022-12-31T16:51:49.517Z,76.33
2022-12-31T16:54:26.737Z,76.06
2022-12-31T16:57:01.940Z,75.12
2022-12-31T16:59:41.079Z,74.25
2022-12-31T17:02:19.394Z,74.20
2022-12-31T17:04:56.254Z,74.82
2022-12-31T17:07:40.221Z,72.64
2022-12-31T17:10:21.408Z,74.20
2022-12-31T17:13:27.072Z,74.09
2022-12-31T17:15:52.331Z,72.84
2022-12-31T17:18:27.636Z,73.75
2022-12-31T17:21:09.967Z,71.47
2022-12-31T17:23:49.600Z,71.20
2022-12-31T17:26:25.964Z,72.21
2022-12-31T17:29:02.333Z,71.24
2022-12-31T17:31:37.735Z,70.81
2022-12-31T17:34:24.699Z,71.05
2022-12-31T17:37:18.266Z,71.08
2022-12-31T17:39:52.534Z,70.57
2022-12-31T17:42:33.909Z,70.93
2022-12-31T17:45:16.561Z,70.51
2022-12-31T17:47:53.543Z,69.53
2022-12-31T17:50:28.082Z,70.30
2022-12-31T17:53:09.964Z,70.02
2022-12-31T17:55:45.327Z,70.24
2022-12-31T17:58:27.694Z,69.28
2022-12-31T18:01:07.123Z,68.72
2022-12-31T18:03:40.213Z,68.22
2022-12-31T18:06:16.828Z,67.55
2022-12-31T18:08:49.936Z,68.07
2022-12-31T18:11:25.296Z,68.19
2022-12-31T18:14:00.955Z,66.74
2022-12-31T18:16:35.471Z,67.26
2022-12-31T18:19:23.588Z,66.94
2022-12-31T18:22:05.945Z,67.55
2022-12-31T18:24:38.808Z,67.11
2022-12-31T18:27:17.406Z,66.79
2022-12-31T18:29:50.400Z,66.17
2022-12-31T18:32:27.118Z,66.07
2022-12-31T18:35:00.276Z,66.06
2022-12-31T18:37:35.284Z,66.51
2022-12-31T18:40:08.940Z,66.50
2022-12-31T18:42:42.232Z,66.01
2022-12-31T18:45:17.716Z,66.55
2022-12-31T18:47:52.019Z,66.21
2022-12-31T18:50:25.199Z,64.80
2022-12-31T18:52:58.169Z,63.80
2022-12-31T18:55:37.215Z,64.05
2022-12-31T18:58:11.821Z,64.03
2022-12-31T19:00:44.915Z,65.44
2022-12-31T19:03:20.999Z,65.04
2022-12-31T19:05:54.076Z,63.81
2022-12-31T19:08:26.878Z,64.71
2022-12-31T19:10:59.645Z,63.59
2022-12-31T19:13:32.450Z,64.14
2022-12-31T19:16:05.654Z,62.78
2022-12-31T19:18:39.814Z,62.94
2022-12-31T19:21:17.176Z,63.03
2022-12-31T19:23:51.456Z,61.67
2022-12-31T19:26:24.308Z,62.40
2022-12-31T19:28:57.193Z,61.35
2022-12-31T19:31:30.079Z,62.45
2022-12-31T19:34:04.304Z,62.91
2022-12-31T19:36:43.724Z,61.51
2022-12-31T19:39:20.084Z,61.95
2022-12-31T19:41:58.775Z,61.64
2022-12-31T19:44:32.089Z,61.45
2022-12-31T19:47:04.968Z,60.96
2022-12-31T19:49:39.889Z,62.17
2022-12-31T19:52:12.859Z,60.58
2022-12-31T19:54:45.817Z,60.38
2022-12-31T19:57:18.581Z,60.74
2022-12-31T19:59:51.307Z,59.60
2022-12-31T20:02:24.300Z,59.59
2022-12-31T20:04:58.652Z,59.49
2022-12-31T20:07:31.546Z,58.81
2022-12-31T20:10:05.308Z,59.55
2022-12-31T20:12:44.083Z,59.18
2022-12-31T20:15:18.064Z,59.40
2022-12-31T20:17:50.911Z,58.68
2022-12-31T20:20:25.261Z,60.06
2022-12-31T20:22:58.754Z,57.92
2022-12-31T20:25:31.580Z,57.35
2022-12-31T20:28:04.369Z,60.19
2022-12-31T20:30:38.507Z,57.54
2022-12-31T20:33:17.333Z,56.56
2022-12-31T20:35:53.102Z,57.94
2022-12-31T20:38:25.905Z,58.01
2022-12-31T20:41:04.187Z,57.06
2022-12-31T20:43:37.807Z,57.49
2022-12-31T20:46:15.811Z,56.66
2022-12-31T20:48:50.956Z,56.64
2022-12-31T20:51:26.603Z,57.09
2022-12-31T20:54:01.633Z,56.85
2022-12-31T20:56:36.122Z,55.85
2022-12-31T20:59:10.124Z,55.57
2022-12-31T21:02:19.554Z,54.41
2022-12-31T21:04:35.861Z,56.40
2022-12-31T21:07:10.098Z,55.02
2022-12-31T21:09:42.929Z,53.63
2022-12-31T21:12:33.583Z,54.04
2022-12-31T21:15:07.511Z,53.50
2022-12-31T21:17:40.408Z,54.35
2022-12-31T21:20:13.494Z,54.09
2022-12-31T21:22:48.241Z,54.04
2022-12-31T21:25:21.578Z,54.98
2022-12-31T21:27:54.417Z,54.24
2022-12-31T21:30:27.331Z,54.05
2022-12-31T21:33:00.125Z,54.91
2022-12-31T21:35:44.441Z,54.82
2022-12-31T21:38:21.122Z,53.57
2022-12-31T21:40:54.248Z,54.16
2022-12-31T21:43:27.176Z,53.56
2022-12-31T21:46:04.059Z,52.70
2022-12-31T21:48:37.038Z,54.18
2022-12-31T21:51:14.079Z,53.83
2022-12-31T21:53:48.309Z,53.88
2022-12-31T21:56:21.617Z,53.73
2022-12-31T21:59:13.396Z,53.88
2022-12-31T22:02:02.997Z,53.89
2022-12-31T22:05:01.310Z,52.99
2022-12-31T22:07:28.653Z,52.88
2022-12-31T22:10:02.935Z,52.35
2022-12-31T22:12:35.832Z,52.76
2022-12-31T22:15:15.082Z,51.95
2022-12-31T22:17:48.860Z,52.94
2022-12-31T22:20:27.477Z,51.74
2022-12-31T22:23:00.570Z,51.93
2022-12-31T22:25:35.756Z,51.79
2022-12-31T22:31:01.798Z,51.28
2022-12-31T22:33:35.194Z,51.32
2022-12-31T22:36:11.411Z,52.76
2022-12-31T22:38:45.084Z,51.65
2022-12-31T22:41:21.112Z,51.61
2022-12-31T22:44:02.603Z,51.02
2022-12-31T22:46:37.087Z,51.27
2022-12-31T22:49:11.538Z,51.64
2022-12-31T22:51:57.162Z,50.91
2022-12-31T22:54:31.729Z,51.00
2022-12-31T22:57:05.929Z,50.95
2022-12-31T22:59:38.917Z,51.92
2022-12-31T23:02:12.087Z,50.44
2022-12-31T23:04:45.312Z,51.66
2022-12-31T23:07:18.113Z,49.70
2022-12-31T23:10:08.536Z,52.10
2022-12-31T23:12:42.686Z,52.10
2022-12-31T23:15:33.510Z,50.40
2022-12-31T23:18:24.299Z,50.43
2022-12-31T23:21:15.072Z,51.32
2022-12-31T23:23:48.119Z,49.84
2022-12-31T23:26:20.918Z,51.02
2022-12-31T23:28:55.093Z,50.21
2022-12-31T23:31:28.890Z,50.71
2022-12-31T23:34:01.780Z,50.83
2022-12-31T23:36:34.648Z,51.54
2022-12-31T23:39:07.483Z,50.71
2022-12-31T23:41:40.568Z,50.63
2022-12-31T23:44:14.741Z,52.48
2022-12-31T23:46:47.713Z,50.02
2022-12-31T23:49:20.577Z,50.32
2022-12-31T23:51:53.524Z,50.90
2022-12-31T23:54:26.885Z,50.84
2022-12-31T23:57:00.017Z,50.08
2022-12-31T23:59:34.393Z,50.08
